createdAt,value
2022-08-10T00:01:15.307Z,64.24
2022-08-10T00:03:48.328Z,64.17
2022-08-10T00:06:21.461Z,64.27
2022-08-10T00:08:54.732Z,64.23
2022-08-10T00:11:28.511Z,64.33
2022-08-10T00:14:01.632Z,64.41
2022-08-10T00:16:35.001Z,64.47
2022-08-10T00:19:08.089Z,64.54
2022-08-10T00:21:44.583Z,64.64
2022-08-10T00:24:17.850Z,64.57
2022-08-10T00:27:58.641Z,64.63
2022-08-10T00:29:25.916Z,64.76
2022-08-10T00:31:59.496Z,64.85
2022-08-10T00:34:34.794Z,64.96
2022-08-10T00:37:08.042Z,64.97
2022-08-10T00:39:41.649Z,65.07
2022-08-10T00:42:17.513Z,65.11
2022-08-10T00:44:53.697Z,64.98
2022-08-10T00:47:36.943Z,64.98
2022-08-10T00:50:01.749Z,64.89
2022-08-10T00:52:36.737Z,64.84
2022-08-10T00:55:11.126Z,64.75
2022-08-10T00:57:45.288Z,64.78
2022-08-10T01:00:22.022Z,64.85
2022-08-10T01:02:55.382Z,65.13
2022-08-10T01:05:29.235Z,65.33
2022-08-10T01:08:21.261Z,65.26
2022-08-10T01:11:00.084Z,65.28
2022-08-10T01:13:37.019Z,65.28
2022-08-10T01:16:14.834Z,65.45
2022-08-10T01:18:49.063Z,65.39
2022-08-10T01:21:54.283Z,63.29
2022-08-10T01:24:41.267Z,64.80
2022-08-10T01:27:28.346Z,65.00
2022-08-10T01:30:08.562Z,65.23
2022-08-10T01:32:51.785Z,65.37
2022-08-10T01:35:28.909Z,65.44
2022-08-10T01:40:50.219Z,65.60
2022-08-10T01:43:25.153Z,65.69
2022-08-10T01:46:01.827Z,65.74
2022-08-10T01:48:37.378Z,65.78
2022-08-10T01:51:16.843Z,65.80
2022-08-10T01:53:55.350Z,66.15
2022-08-10T01:56:31.945Z,66.16
2022-08-10T02:01:55.878Z,66.09
2022-08-10T02:04:33.236Z,66.12
2022-08-10T02:07:08.641Z,66.17
2022-08-10T02:09:44.917Z,66.20
2022-08-10T02:12:20.706Z,66.32
2022-08-10T02:14:57.437Z,66.49
2022-08-10T02:17:58.287Z,66.46
2022-08-10T02:20:14.226Z,66.62
2022-08-10T02:22:49.905Z,66.65
2022-08-10T02:25:41.476Z,66.47
2022-08-10T02:28:01.630Z,66.64
2022-08-10T02:30:36.614Z,66.54
2022-08-10T02:33:11.052Z,66.37
2022-08-10T02:35:54.427Z,66.37
2022-08-10T02:38:58.712Z,66.52
2022-08-10T02:45:12.620Z,66.53
2022-08-10T02:45:22.694Z,66.46
2022-08-10T02:46:14.497Z,66.53
2022-08-10T02:48:50.800Z,64.70
2022-08-10T02:52:06.381Z,65.79
2022-08-10T02:54:04.688Z,64.32
2022-08-10T02:56:41.873Z,65.55
2022-08-10T02:59:17.672Z,65.97
2022-08-10T03:01:55.008Z,66.06
2022-08-10T03:04:54.916Z,66.23
2022-08-10T03:07:09.271Z,66.25
2022-08-10T03:09:44.569Z,66.21
2022-08-10T03:12:46.733Z,66.04
2022-08-10T03:15:01.291Z,66.19
2022-08-10T03:17:41.270Z,66.26
2022-08-10T03:20:36.533Z,66.16
2022-08-10T03:22:58.609Z,66.05
2022-08-10T03:25:33.594Z,65.94
2022-08-10T03:28:48.415Z,65.98
2022-08-10T03:31:43.108Z,66.10
2022-08-10T03:34:33.604Z,65.65
2022-08-10T03:36:54.442Z,65.74
2022-08-10T03:39:27.785Z,65.83
2022-08-10T03:42:06.202Z,65.74
2022-08-10T03:44:47.390Z,65.57
2022-08-10T03:47:21.575Z,65.46
2022-08-10T03:49:56.812Z,65.42
2022-08-10T03:52:32.939Z,65.23
2022-08-10T03:55:07.582Z,65.20
2022-08-10T03:57:49.443Z,64.82
2022-08-10T04:00:21.714Z,64.42
2022-08-10T04:02:58.405Z,63.89
2022-08-10T04:05:38.430Z,63.58
2022-08-10T04:08:08.343Z,63.37
2022-08-10T04:10:41.516Z,63.46
2022-08-10T04:13:15.041Z,63.40
2022-08-10T04:15:49.386Z,63.11
2022-08-10T04:18:22.911Z,62.99
2022-08-10T04:20:59.089Z,63.12
2022-08-10T04:23:35.167Z,63.04
2022-08-10T04:26:12.314Z,62.97
2022-08-10T04:28:46.042Z,62.65
2022-08-10T04:31:20.946Z,62.28
2022-08-10T04:33:57.364Z,62.00
2022-08-10T04:36:32.577Z,61.93
2022-08-10T04:39:07.067Z,61.61
2022-08-10T04:41:46.171Z,61.37
2022-08-10T04:44:22.731Z,61.01
2022-08-10T04:47:01.899Z,60.64
2022-08-10T04:49:56.111Z,60.47
2022-08-10T04:52:10.359Z,60.00
2022-08-10T04:54:44.656Z,59.53
2022-08-10T04:57:17.883Z,59.30
2022-08-10T04:59:52.472Z,59.23
2022-08-10T05:02:31.456Z,59.27
2022-08-10T05:05:02.427Z,59.25
2022-08-10T05:07:37.486Z,59.53
2022-08-10T05:10:13.475Z,59.53
2022-08-10T05:12:47.171Z,59.30
2022-08-10T05:15:22.150Z,59.39
2022-08-10T05:18:03.177Z,59.51
2022-08-10T05:20:30.495Z,59.46
2022-08-10T05:23:04.346Z,59.07
2022-08-10T05:25:38.418Z,58.74
2022-08-10T05:28:12.021Z,58.43
2022-08-10T05:30:45.641Z,58.03
2022-08-10T05:33:18.775Z,57.67
2022-08-10T05:35:58.124Z,57.72
2022-08-10T05:38:29.036Z,57.43
2022-08-10T05:41:02.953Z,57.34
2022-08-10T05:43:36.648Z,57.08
2022-08-10T05:46:16.948Z,57.46
2022-08-10T05:48:56.558Z,58.05
2022-08-10T05:51:28.102Z,58.48
2022-08-10T05:54:06.515Z,58.83
2022-08-10T05:56:56.259Z,59.02
2022-08-10T06:03:15.307Z,59.21
2022-08-10T06:06:24.792Z,59.53
2022-08-10T06:15:50.666Z,58.91
2022-08-10T06:18:43.810Z,58.79
2022-08-10T06:24:30.226Z,58.13
2022-08-10T06:27:15.570Z,57.88
2022-08-10T07:41:54.665Z,25.41
2022-08-10T07:48:24.852Z,25.90
2022-08-10T07:51:02.301Z,24.11
2022-08-10T07:53:38.643Z,23.54
2022-08-10T07:56:58.702Z,24.39
2022-08-10T08:04:19.798Z,24.83
2022-08-10T08:07:02.319Z,24.72
2022-08-10T08:09:57.082Z,24.03
2022-08-10T08:12:42.577Z,24.51
2022-08-10T08:24:07.659Z,26.30
2022-08-10T08:24:46.359Z,22.96
2022-08-10T08:27:32.030Z,21.30
2022-08-10T08:30:27.065Z,19.62
2022-08-10T08:33:00.130Z,22.89
2022-08-10T08:35:38.959Z,18.53
2022-08-10T08:38:42.241Z,17.98
2022-08-10T08:42:09.780Z,17.56
2022-08-10T08:45:00.611Z,17.67
2022-08-10T08:48:06.469Z,17.75
2022-08-10T08:50:57.337Z,17.41
2022-08-10T08:54:01.901Z,17.76
2022-08-10T08:59:20.596Z,18.71
2022-08-10T09:02:36.557Z,17.96
2022-08-10T09:05:32.252Z,16.61
2022-08-10T09:08:50.302Z,16.06
2022-08-10T09:53:42.487Z,21.50
2022-08-10T09:56:28.978Z,18.34
2022-08-10T09:59:59.016Z,18.47
2022-08-10T10:01:48.402Z,19.10
2022-08-10T10:04:27.557Z,20.46
2022-08-10T10:07:05.833Z,18.84
2022-08-10T10:09:40.901Z,17.90
2022-08-10T10:12:19.411Z,20.77
2022-08-10T10:15:24.887Z,18.04
2022-08-10T10:18:11.871Z,17.25
2022-08-10T10:20:48.649Z,17.55
2022-08-10T10:23:26.480Z,15.84
2022-08-10T10:26:08.420Z,15.13
2022-08-10T10:29:19.754Z,14.42
2022-08-10T10:31:23.044Z,16.23
2022-08-10T10:34:01.600Z,17.99
2022-08-10T10:36:36.586Z,19.60
2022-08-10T10:39:11.931Z,18.83
2022-08-10T10:41:55.873Z,16.28
2022-08-10T10:44:50.874Z,16.18
2022-08-10T10:47:38.170Z,17.46
2022-08-10T10:50:17.011Z,15.99
2022-08-10T10:53:17.553Z,14.39
2022-08-10T10:56:14.822Z,14.57
2022-08-10T11:01:47.023Z,16.20
2022-08-10T11:04:27.608Z,16.42
2022-08-10T11:07:05.313Z,18.66
2022-08-10T11:10:06.030Z,20.01
2022-08-10T11:12:23.261Z,20.49
2022-08-10T11:17:50.402Z,22.15
2022-08-10T11:20:50.670Z,21.96
2022-08-10T11:23:26.111Z,21.85
2022-08-10T11:26:02.222Z,22.23
2022-08-10T11:28:38.341Z,22.46
2022-08-10T11:31:40.610Z,21.75
2022-08-10T11:35:15.311Z,21.42
2022-08-10T11:42:06.516Z,21.01
2022-08-10T11:44:01.057Z,20.23
2022-08-10T11:46:52.779Z,20.61
2022-08-10T11:49:32.735Z,21.17
2022-08-10T11:52:45.041Z,21.45
2022-08-10T11:56:13.548Z,21.97
2022-08-10T12:04:28.903Z,22.01
2022-08-10T12:24:25.653Z,19.88
2022-08-10T12:27:02.156Z,18.12
2022-08-10T12:29:39.477Z,18.78
2022-08-10T12:32:25.520Z,19.15
2022-08-10T12:34:59.141Z,18.78
2022-08-10T12:37:37.303Z,18.12
2022-08-10T12:43:12.812Z,17.12
2022-08-10T12:45:37.789Z,16.07
2022-08-10T12:48:15.192Z,16.02
2022-08-10T12:50:53.661Z,15.63
2022-08-10T12:53:37.240Z,15.41
2022-08-10T12:56:10.641Z,14.53
2022-08-10T12:58:58.014Z,13.76
2022-08-10T13:01:20.601Z,13.42
2022-08-10T13:04:21.423Z,13.31
2022-08-10T13:06:38.618Z,13.51
2022-08-10T13:09:15.877Z,14.18
2022-08-10T13:12:39.015Z,18.18
2022-08-10T13:14:50.151Z,13.66
2022-08-10T13:17:38.648Z,13.76
2022-08-10T13:20:13.695Z,14.01
2022-08-10T13:22:52.207Z,14.91
2022-08-10T13:25:29.534Z,15.11
2022-08-10T13:28:35.340Z,16.07
2022-08-10T13:30:50.628Z,17.48
2022-08-10T13:34:38.813Z,17.96
2022-08-10T13:36:02.069Z,17.57
2022-08-10T13:38:35.972Z,17.06
2022-08-10T13:41:10.700Z,16.11
2022-08-10T13:43:53.800Z,16.81
2022-08-10T13:46:27.962Z,17.58
2022-08-10T13:49:04.169Z,18.68
2022-08-10T13:51:56.623Z,20.44
2022-08-10T13:54:18.188Z,20.98
2022-08-10T13:56:53.398Z,19.97
2022-08-10T14:00:36.004Z,20.20
2022-08-10T14:02:07.232Z,20.80
2022-08-10T14:48:59.024Z,20.48
2022-08-10T14:51:44.145Z,19.95
2022-08-10T14:54:17.738Z,19.92
2022-08-10T14:56:55.041Z,20.82
2022-08-10T15:00:25.095Z,22.15
2022-08-10T15:02:38.351Z,22.25
2022-08-10T15:04:52.020Z,21.91
2022-08-10T15:07:34.816Z,21.98
2022-08-10T15:10:12.090Z,21.99
2022-08-10T15:12:48.659Z,21.96
2022-08-10T15:15:28.034Z,21.95
2022-08-10T15:18:13.763Z,21.77
2022-08-10T15:20:47.223Z,22.12
2022-08-10T15:23:32.921Z,22.65
2022-08-10T15:26:13.667Z,22.87
2022-08-10T15:29:23.518Z,22.71
2022-08-10T15:31:38.140Z,22.89
2022-08-10T15:34:30.074Z,23.14
2022-08-10T15:37:39.600Z,23.51
2022-08-10T15:40:26.080Z,23.32
2022-08-10T15:42:49.418Z,23.03
2022-08-10T15:45:21.078Z,23.64
2022-08-10T15:48:02.987Z,23.81
2022-08-10T15:50:40.172Z,24.03
2022-08-10T15:53:17.583Z,24.55
2022-08-10T15:58:41.593Z,25.02
2022-08-10T16:02:13.157Z,25.17
2022-08-10T16:04:09.308Z,25.32
2022-08-10T16:06:46.495Z,25.83
2022-08-10T16:10:21.906Z,26.23
2022-08-10T16:12:02.405Z,26.69
2022-08-10T16:14:40.735Z,27.36
2022-08-10T16:17:15.682Z,27.56
2022-08-10T16:19:54.714Z,27.70
2022-08-10T16:22:37.637Z,28.09
2022-08-10T16:25:18.468Z,28.67
2022-08-10T16:27:53.412Z,28.81
2022-08-10T16:30:27.624Z,29.07
2022-08-10T16:33:03.599Z,29.49
2022-08-10T16:35:41.532Z,29.52
2022-08-10T16:38:19.125Z,29.56
2022-08-10T16:40:55.285Z,29.75
2022-08-10T16:43:41.751Z,29.99
2022-08-10T16:46:27.065Z,30.67
2022-08-10T16:49:08.123Z,31.08
2022-08-10T16:51:56.268Z,31.36
2022-08-10T16:54:50.128Z,31.91
2022-08-10T16:57:42.471Z,32.10
2022-08-10T17:00:37.102Z,32.34
2022-08-10T17:04:06.364Z,33.00
2022-08-10T17:06:52.479Z,33.41
2022-08-10T17:09:28.819Z,34.12
2022-08-10T17:12:23.864Z,34.36
2022-08-10T17:15:17.631Z,34.22
2022-08-10T17:18:06.720Z,34.74
2022-08-10T17:20:48.562Z,35.24
2022-08-10T17:23:23.342Z,35.91
2022-08-10T17:26:00.079Z,36.15
2022-08-10T17:28:37.367Z,36.89
2022-08-10T17:31:39.758Z,37.02
2022-08-10T17:33:54.739Z,37.47
2022-08-10T17:36:34.779Z,37.66
2022-08-10T17:39:11.576Z,37.87
2022-08-10T17:41:55.366Z,38.03
2022-08-10T17:44:29.342Z,38.46
2022-08-10T17:47:10.833Z,38.78
2022-08-10T17:49:43.659Z,38.82
2022-08-10T17:52:17.169Z,39.02
2022-08-10T17:57:39.435Z,37.36
2022-08-10T18:00:15.590Z,39.58
2022-08-10T18:02:54.451Z,39.77
2022-08-10T18:05:29.648Z,39.92
2022-08-10T18:08:06.410Z,39.98
2022-08-10T18:10:43.079Z,39.95
2022-08-10T18:13:19.397Z,40.45
2022-08-10T18:15:53.779Z,40.83
2022-08-10T18:18:29.881Z,41.36
2022-08-10T18:21:09.272Z,41.38
2022-08-10T18:23:50.598Z,41.52
2022-08-10T18:26:33.363Z,41.19
2022-08-10T18:29:10.142Z,41.53
2022-08-10T18:31:45.990Z,41.43
2022-08-10T18:34:22.365Z,41.42
2022-08-10T18:36:57.809Z,42.15
2022-08-10T18:39:34.896Z,42.10
2022-08-10T18:42:14.620Z,41.94
2022-08-10T18:44:51.167Z,42.24
2022-08-10T18:47:41.414Z,42.21
2022-08-10T18:50:20.076Z,42.68
2022-08-10T18:52:57.054Z,42.83
2022-08-10T18:56:08.442Z,43.03
2022-08-10T19:01:51.201Z,40.45
2022-08-10T19:04:51.618Z,43.77
2022-08-10T19:07:39.996Z,43.59
2022-08-10T19:10:33.425Z,43.66
2022-08-10T19:13:14.425Z,43.74
2022-08-10T19:15:54.559Z,43.41
2022-08-10T19:18:34.621Z,44.37
2022-08-10T19:21:12.817Z,43.66
2022-08-10T19:23:52.351Z,43.93
2022-08-10T19:26:44.341Z,44.20
2022-08-10T19:30:10.303Z,44.33
2022-08-10T19:32:17.862Z,44.76
2022-08-10T19:34:56.413Z,44.72
2022-08-10T19:40:46.716Z,42.77
2022-08-10T19:44:01.357Z,44.62
2022-08-10T19:48:01.297Z,44.47
2022-08-10T19:50:21.855Z,44.43
2022-08-10T19:53:03.085Z,44.25
2022-08-10T19:55:41.229Z,44.25
2022-08-10T19:58:19.337Z,44.43
2022-08-10T20:00:57.709Z,44.54
2022-08-10T20:03:37.024Z,44.75
2022-08-10T20:08:59.574Z,43.60
2022-08-10T20:11:46.195Z,45.10
2022-08-10T20:14:22.087Z,44.78
2022-08-10T20:16:55.955Z,44.84
2022-08-10T20:19:53.596Z,44.81
2022-08-10T20:22:10.415Z,45.11
2022-08-10T20:24:48.277Z,45.45
2022-08-10T20:28:14.584Z,45.82
2022-08-10T20:30:03.780Z,45.53
2022-08-10T20:32:39.211Z,45.30
2022-08-10T20:35:15.361Z,44.98
2022-08-10T20:38:04.048Z,45.13
2022-08-10T20:40:32.392Z,45.17
2022-08-10T20:46:08.336Z,43.27
2022-08-10T20:48:38.632Z,45.23
2022-08-10T20:54:01.190Z,43.56
2022-08-10T20:56:40.819Z,45.28
2022-08-10T20:59:28.957Z,45.23
2022-08-10T21:02:11.143Z,45.33
2022-08-10T21:04:41.549Z,45.03
2022-08-10T21:07:43.981Z,40.46
2022-08-10T21:10:04.122Z,44.43
2022-08-10T21:12:51.671Z,44.89
2022-08-10T21:15:32.113Z,45.17
2022-08-10T21:18:35.517Z,45.27
2022-08-10T21:21:21.860Z,45.55
2022-08-10T21:23:59.181Z,45.90
2022-08-10T21:26:40.162Z,45.74
2022-08-10T21:29:21.505Z,45.61
2022-08-10T21:32:06.940Z,45.69
2022-08-10T21:35:07.915Z,45.95
2022-08-10T21:37:45.168Z,46.06
2022-08-10T21:41:17.833Z,45.90
2022-08-10T21:43:58.902Z,45.98
2022-08-10T21:46:55.394Z,45.80
2022-08-10T21:49:52.086Z,46.02
2022-08-10T21:52:53.769Z,45.91
2022-08-10T21:55:57.154Z,46.01
2022-08-10T21:58:38.665Z,46.24
2022-08-10T22:01:39.762Z,46.12
2022-08-10T22:04:25.857Z,46.23
2022-08-10T22:07:20.175Z,46.25
2022-08-10T22:10:14.085Z,46.40
2022-08-10T22:13:11.290Z,46.37
2022-08-10T22:16:10.769Z,46.41
2022-08-10T22:19:02.742Z,46.42
2022-08-10T22:21:59.982Z,46.35
2022-08-10T22:25:02.005Z,46.24
2022-08-10T22:27:55.952Z,46.41
2022-08-10T22:31:22.867Z,46.64
2022-08-10T22:33:49.570Z,46.81
2022-08-10T22:37:07.375Z,46.82
2022-08-10T22:40:12.781Z,46.69
2022-08-10T22:43:10.923Z,46.57
2022-08-10T22:45:57.142Z,46.83
2022-08-10T22:48:50.315Z,47.19
2022-08-10T22:51:27.611Z,47.08
2022-08-10T22:54:30.752Z,47.27
2022-08-10T22:57:14.643Z,47.39
2022-08-10T22:59:49.473Z,47.38
2022-08-10T23:05:13.863Z,45.87
2022-08-10T23:07:52.821Z,47.51
2022-08-10T23:10:29.349Z,47.70
2022-08-10T23:13:05.755Z,47.73
2022-08-10T23:15:59.520Z,47.84
2022-08-10T23:18:53.489Z,48.05
2022-08-10T23:21:47.685Z,47.94
2022-08-10T23:24:03.515Z,48.20
2022-08-10T23:26:37.951Z,43.33
2022-08-10T23:29:16.095Z,47.62
2022-08-10T23:32:06.564Z,48.29
2022-08-10T23:34:30.566Z,48.42
2022-08-10T23:37:05.809Z,48.82
2022-08-10T23:39:41.605Z,48.86
2022-08-10T23:42:17.568Z,49.12
2022-08-10T23:44:53.632Z,49.15
2022-08-10T23:47:29.850Z,49.23
2022-08-10T23:50:12.832Z,49.44
2022-08-10T23:52:46.983Z,49.35
2022-08-10T23:55:25.620Z,44.25
2022-08-10T23:58:01.789Z,48.47
